createdAt,value
2022-09-21T00:00:07.851Z,14.3
2022-09-21T00:01:14.467Z,14.4
2022-09-21T00:02:21.564Z,14.3
2022-09-21T00:03:28.627Z,14.3
2022-09-21T00:04:35.760Z,14.3
2022-09-21T00:05:42.788Z,14.4
2022-09-21T00:06:50.501Z,14.4
2022-09-21T00:07:56.526Z,14.4
2022-09-21T00:09:04.183Z,14.4
2022-09-21T00:10:10.740Z,14.4
2022-09-21T00:11:17.833Z,14.4
2022-09-21T00:12:24.400Z,14.4
2022-09-21T00:13:31.590Z,14.4
2022-09-21T00:14:38.623Z,14.4
2022-09-21T00:15:45.717Z,14.4
2022-09-21T00:16:52.328Z,14.4
2022-09-21T00:17:59.478Z,14.3
2022-09-21T00:19:06.531Z,14.3
2022-09-21T00:20:13.631Z,14.3
2022-09-21T00:21:20.738Z,14.3
2022-09-21T00:22:27.841Z,14.3
2022-09-21T00:23:34.411Z,14.3
2022-09-21T00:24:41.692Z,14.3
2022-09-21T00:26:55.780Z,14.3
2022-09-21T00:28:02.844Z,14.3
2022-09-21T00:29:09.460Z,14.3
2022-09-21T00:30:16.560Z,14.3
2022-09-21T00:31:23.697Z,14.3
2022-09-21T00:32:30.861Z,14.3
2022-09-21T00:33:37.417Z,14.3
2022-09-21T00:34:44.406Z,14.3
2022-09-21T00:35:51.576Z,14.3
2022-09-21T00:36:58.660Z,14.3
2022-09-21T00:38:05.757Z,14.3
2022-09-21T00:39:12.350Z,14.3
2022-09-21T00:40:19.589Z,14.3
2022-09-21T00:41:26.666Z,14.3
2022-09-21T00:42:33.650Z,14.3
2022-09-21T00:43:40.867Z,14.3
2022-09-21T00:44:47.897Z,14.3
2022-09-21T00:45:54.536Z,14.3
2022-09-21T00:47:01.552Z,14.3
2022-09-21T00:48:08.710Z,14.4
2022-09-21T00:49:16.051Z,14.4
2022-09-21T00:50:23.404Z,14.4
2022-09-21T00:52:36.598Z,14.3
2022-09-21T00:54:51.016Z,14.3
2022-09-21T00:55:57.334Z,14.4
2022-09-21T00:57:04.476Z,14.4
2022-09-21T00:58:11.600Z,14.3
2022-09-21T00:59:21.549Z,14.4
2022-09-21T01:00:25.754Z,14.4
2022-09-21T01:01:32.473Z,14.4
2022-09-21T01:02:39.541Z,14.4
2022-09-21T01:03:46.612Z,14.4
2022-09-21T01:04:53.693Z,14.4
2022-09-21T01:07:07.390Z,14.4
2022-09-21T01:08:14.479Z,14.4
2022-09-21T01:09:21.585Z,14.4
2022-09-21T01:10:29.241Z,14.4
2022-09-21T01:11:35.798Z,14.4
2022-09-21T01:12:42.372Z,14.4
2022-09-21T01:13:49.486Z,14.5
2022-09-21T01:14:56.620Z,14.5
2022-09-21T01:16:03.715Z,14.5
2022-09-21T01:17:10.857Z,14.5
2022-09-21T01:18:17.436Z,14.5
2022-09-21T01:19:24.479Z,14.5
2022-09-21T01:20:31.600Z,14.5
2022-09-21T01:22:45.277Z,14.5
2022-09-21T01:23:52.450Z,14.5
2022-09-21T01:24:59.508Z,14.5
2022-09-21T01:26:06.644Z,14.5
2022-09-21T01:27:13.688Z,14.5
2022-09-21T01:28:20.311Z,14.5
2022-09-21T01:29:27.412Z,14.5
2022-09-21T01:30:34.530Z,14.5
2022-09-21T01:31:42.208Z,14.4
2022-09-21T01:32:48.759Z,14.5
2022-09-21T01:33:55.826Z,14.5
2022-09-21T01:35:02.420Z,14.5
2022-09-21T01:36:09.568Z,14.4
2022-09-21T01:37:16.660Z,14.5
2022-09-21T01:38:23.711Z,14.4
2022-09-21T01:39:30.314Z,14.5
2022-09-21T01:40:37.487Z,14.5
2022-09-21T01:41:44.540Z,14.4
2022-09-21T01:42:53.486Z,14.5
2022-09-21T01:43:58.733Z,14.5
2022-09-21T01:45:05.342Z,14.4
2022-09-21T01:46:12.422Z,14.5
2022-09-21T01:47:19.560Z,14.5
2022-09-21T01:48:26.768Z,14.4
2022-09-21T01:49:33.771Z,14.5
2022-09-21T01:50:40.384Z,14.5
2022-09-21T01:51:47.459Z,14.5
2022-09-21T01:52:54.575Z,14.5
2022-09-21T01:54:01.643Z,14.5
2022-09-21T01:55:08.770Z,14.5
2022-09-21T01:56:16.400Z,14.4
2022-09-21T01:57:22.420Z,14.4
2022-09-21T01:58:29.590Z,14.5
2022-09-21T01:59:36.691Z,14.4
2022-09-21T02:00:43.856Z,14.5
2022-09-21T02:01:50.455Z,14.5
2022-09-21T02:02:57.435Z,14.5
2022-09-21T02:04:04.604Z,14.5
2022-09-21T02:05:11.679Z,14.6
2022-09-21T02:06:18.809Z,14.6
2022-09-21T02:07:25.370Z,14.6
2022-09-21T02:08:32.434Z,14.6
2022-09-21T02:09:39.620Z,14.6
2022-09-21T02:10:46.700Z,14.6
2022-09-21T02:11:53.772Z,14.6
2022-09-21T02:14:09.478Z,14.6
2022-09-21T02:15:14.600Z,14.6
2022-09-21T02:16:21.770Z,14.6
2022-09-21T02:17:28.805Z,14.6
2022-09-21T02:18:35.359Z,14.6
2022-09-21T02:19:42.531Z,14.6
2022-09-21T02:20:49.600Z,14.6
2022-09-21T02:21:56.732Z,14.6
2022-09-21T02:23:03.857Z,14.6
2022-09-21T02:24:10.934Z,14.6
2022-09-21T02:25:17.601Z,14.6
2022-09-21T02:26:24.581Z,14.6
2022-09-21T02:27:31.732Z,14.6
2022-09-21T02:28:38.307Z,14.6
2022-09-21T02:29:45.377Z,14.6
2022-09-21T02:30:52.461Z,14.6
2022-09-21T02:31:59.646Z,14.5
2022-09-21T02:33:06.721Z,14.5
2022-09-21T02:35:20.416Z,14.5
2022-09-21T02:36:27.571Z,14.5
2022-09-21T02:37:34.568Z,14.5
2022-09-21T02:38:41.699Z,14.5
2022-09-21T02:39:48.282Z,14.5
2022-09-21T02:40:55.400Z,14.5
2022-09-21T02:42:02.524Z,14.5
2022-09-21T02:43:09.618Z,14.5
2022-09-21T02:44:16.736Z,14.5
2022-09-21T02:45:23.788Z,14.5
2022-09-21T02:46:30.433Z,14.5
2022-09-21T02:47:37.659Z,14.5
2022-09-21T02:48:44.611Z,14.5
2022-09-21T02:49:51.752Z,14.5
2022-09-21T02:50:58.300Z,14.5
2022-09-21T02:53:12.486Z,14.5
2022-09-21T02:55:26.724Z,14.4
2022-09-21T02:56:33.324Z,14.5
2022-09-21T02:57:40.461Z,14.5
2022-09-21T02:59:54.603Z,14.5
2022-09-21T03:01:01.842Z,14.5
2022-09-21T03:02:08.340Z,14.5
2022-09-21T03:03:15.432Z,14.5
2022-09-21T03:04:22.532Z,14.5
2022-09-21T03:05:29.779Z,14.5
2022-09-21T03:06:36.732Z,14.5
2022-09-21T03:07:43.326Z,14.6
2022-09-21T03:08:50.473Z,14.6
2022-09-21T03:09:57.834Z,14.6
2022-09-21T03:11:04.661Z,14.6
2022-09-21T03:12:11.781Z,14.6
2022-09-21T03:13:18.333Z,14.6
2022-09-21T03:14:25.445Z,14.6
2022-09-21T03:15:32.552Z,14.6
2022-09-21T03:16:39.713Z,14.6
2022-09-21T03:17:47.286Z,14.6
2022-09-21T03:18:53.347Z,14.6
2022-09-21T03:21:07.582Z,14.6
2022-09-21T03:22:14.662Z,14.6
2022-09-21T03:23:21.282Z,14.6
2022-09-21T03:24:28.461Z,14.6
2022-09-21T03:25:35.486Z,14.6
2022-09-21T03:26:42.560Z,14.6
2022-09-21T03:27:49.713Z,14.6
2022-09-21T03:28:56.292Z,14.6
2022-09-21T03:30:03.352Z,14.5
2022-09-21T03:31:10.627Z,14.5
2022-09-21T03:32:17.609Z,14.5
2022-09-21T03:33:24.672Z,14.5
2022-09-21T03:34:31.821Z,14.5
2022-09-21T03:36:47.334Z,14.5
2022-09-21T03:37:52.572Z,14.5
2022-09-21T03:38:59.713Z,14.5
2022-09-21T03:40:06.294Z,14.5
2022-09-21T03:41:13.381Z,14.5
2022-09-21T03:42:20.519Z,14.5
2022-09-21T03:43:27.593Z,14.5
2022-09-21T03:44:34.713Z,14.5
2022-09-21T03:45:41.305Z,14.5
2022-09-21T03:46:48.623Z,14.5
2022-09-21T03:49:02.559Z,14.5
2022-09-21T03:50:10.165Z,14.5
2022-09-21T03:51:16.302Z,14.5
2022-09-21T03:52:23.353Z,14.5
2022-09-21T03:53:30.499Z,14.5
2022-09-21T03:54:37.641Z,14.4
2022-09-21T03:55:44.731Z,14.4
2022-09-21T03:56:51.338Z,14.4
2022-09-21T03:57:58.400Z,14.4
2022-09-21T03:59:05.467Z,14.4
2022-09-21T04:00:12.618Z,14.4
2022-09-21T04:01:20.647Z,14.4
2022-09-21T04:03:33.423Z,14.4
2022-09-21T04:04:40.532Z,14.4
2022-09-21T04:05:47.643Z,14.4
2022-09-21T04:06:55.230Z,14.4
2022-09-21T04:08:01.318Z,14.4
2022-09-21T04:09:08.464Z,14.4
2022-09-21T04:10:15.511Z,14.4
2022-09-21T04:11:22.584Z,14.4
2022-09-21T04:12:29.348Z,14.4
2022-09-21T04:13:36.331Z,14.4
2022-09-21T04:14:43.450Z,14.4
2022-09-21T04:15:50.554Z,14.5
2022-09-21T04:18:04.326Z,14.4
2022-09-21T04:19:11.337Z,14.4
2022-09-21T04:20:18.471Z,14.5
2022-09-21T04:21:26.181Z,14.5
2022-09-21T04:22:32.613Z,14.5
2022-09-21T04:23:39.767Z,14.5
2022-09-21T04:24:46.362Z,14.5
2022-09-21T04:25:53.397Z,14.5
2022-09-21T04:27:00.542Z,14.5
2022-09-21T04:28:07.679Z,14.6
2022-09-21T04:29:14.336Z,14.6
2022-09-21T04:30:21.381Z,14.6
2022-09-21T04:31:28.497Z,14.6
2022-09-21T04:32:35.531Z,14.6
2022-09-21T04:33:42.661Z,14.7
2022-09-21T04:34:49.352Z,14.7
2022-09-21T04:35:56.361Z,14.7
2022-09-21T04:37:03.450Z,14.7
2022-09-21T04:38:10.543Z,14.7
2022-09-21T04:39:18.246Z,14.7
2022-09-21T04:40:24.840Z,14.7
2022-09-21T04:41:31.361Z,14.7
2022-09-21T04:42:38.494Z,14.7
2022-09-21T04:43:45.526Z,14.7
2022-09-21T04:44:52.667Z,14.7
2022-09-21T04:45:59.847Z,14.7
2022-09-21T04:47:06.381Z,14.7
2022-09-21T04:48:13.468Z,14.7
2022-09-21T04:49:20.581Z,14.7
2022-09-21T04:50:27.210Z,14.7
2022-09-21T04:51:34.231Z,14.7
2022-09-21T04:52:41.365Z,14.7
2022-09-21T04:53:48.462Z,14.7
2022-09-21T04:54:55.553Z,14.7
2022-09-21T04:56:02.673Z,14.7
2022-09-21T04:57:09.269Z,14.7
2022-09-21T04:59:23.443Z,14.6
2022-09-21T05:00:30.549Z,14.6
2022-09-21T05:01:37.783Z,14.6
2022-09-21T05:02:44.248Z,14.6
2022-09-21T05:03:51.488Z,14.6
2022-09-21T05:04:58.512Z,14.6
2022-09-21T05:07:12.662Z,14.6
2022-09-21T05:08:19.320Z,14.6
2022-09-21T05:09:26.672Z,14.6
2022-09-21T05:10:33.487Z,14.6
2022-09-21T05:11:40.565Z,14.6
2022-09-21T05:12:47.699Z,14.6
2022-09-21T05:13:54.302Z,14.6
2022-09-21T05:15:01.498Z,14.6
2022-09-21T05:16:08.533Z,14.6
2022-09-21T05:17:15.701Z,14.5
2022-09-21T05:19:29.321Z,14.5
2022-09-21T05:20:36.624Z,14.5
2022-09-21T05:21:43.479Z,14.5
2022-09-21T05:22:50.612Z,14.5
2022-09-21T05:23:57.241Z,14.5
2022-09-21T05:25:04.864Z,14.5
2022-09-21T05:26:11.451Z,14.5
2022-09-21T05:27:18.542Z,14.5
2022-09-21T05:28:25.623Z,14.5
2022-09-21T05:29:32.233Z,14.5
2022-09-21T05:31:46.535Z,14.5
2022-09-21T05:32:53.599Z,14.5
2022-09-21T05:34:00.642Z,14.5
2022-09-21T05:35:07.764Z,14.5
2022-09-21T05:36:14.343Z,14.5
2022-09-21T05:37:21.466Z,14.5
2022-09-21T05:38:29.044Z,14.5
2022-09-21T05:40:42.258Z,14.5
2022-09-21T05:41:49.392Z,14.5
2022-09-21T05:42:56.489Z,14.5
2022-09-21T05:44:03.530Z,14.6
2022-09-21T05:45:10.742Z,14.6
2022-09-21T05:46:17.277Z,14.6
2022-09-21T05:47:24.338Z,14.6
2022-09-21T05:48:31.426Z,14.6
2022-09-21T05:49:38.579Z,14.6
2022-09-21T05:50:45.670Z,14.7
2022-09-21T05:51:52.284Z,14.7
2022-09-21T05:52:59.410Z,14.7
2022-09-21T05:54:06.458Z,14.7
2022-09-21T05:55:13.539Z,14.7
2022-09-21T05:56:20.734Z,14.8
2022-09-21T05:57:30.653Z,14.7
2022-09-21T05:58:34.376Z,14.8
2022-09-21T05:59:41.427Z,14.7
2022-09-21T06:00:48.675Z,14.8
2022-09-21T06:01:55.693Z,14.8
2022-09-21T06:03:02.479Z,14.7
2022-09-21T06:04:09.444Z,14.7
2022-09-21T06:05:16.514Z,14.7
2022-09-21T06:06:23.593Z,14.7
2022-09-21T06:07:31.188Z,14.7
2022-09-21T06:08:37.321Z,14.7
2022-09-21T06:09:44.330Z,14.7
2022-09-21T06:10:51.491Z,14.7
2022-09-21T06:11:58.604Z,14.7
2022-09-21T06:13:05.698Z,14.7
2022-09-21T06:14:12.360Z,14.8
2022-09-21T06:15:19.406Z,14.7
2022-09-21T06:16:26.511Z,14.7
2022-09-21T06:17:33.560Z,14.7
2022-09-21T06:18:40.165Z,14.7
2022-09-21T06:19:47.453Z,14.8
2022-09-21T06:22:01.538Z,14.7
2022-09-21T06:23:08.618Z,14.7
2022-09-21T06:24:15.719Z,14.8
2022-09-21T06:25:22.336Z,14.8
2022-09-21T06:26:29.413Z,14.8
2022-09-21T06:27:36.508Z,14.7
2022-09-21T06:28:44.132Z,14.8
2022-09-21T06:29:50.224Z,14.7
2022-09-21T06:30:57.483Z,14.7
2022-09-21T06:32:04.387Z,14.8
2022-09-21T06:33:11.592Z,14.8
2022-09-21T06:34:18.603Z,14.8
2022-09-21T06:35:25.151Z,14.7
2022-09-21T06:36:32.291Z,14.8
2022-09-21T06:37:39.401Z,14.8
2022-09-21T06:38:46.504Z,14.8
2022-09-21T06:39:53.614Z,14.8
2022-09-21T06:41:00.192Z,14.8
2022-09-21T06:43:14.412Z,14.8
2022-09-21T06:45:28.672Z,14.8
2022-09-21T06:46:35.202Z,14.8
2022-09-21T06:47:42.271Z,14.8
2022-09-21T06:48:49.499Z,14.8
2022-09-21T06:59:59.494Z,14.9
2022-09-21T07:01:06.779Z,14.9
2022-09-21T07:03:20.246Z,14.9
2022-09-21T07:04:27.382Z,15
2022-09-21T07:05:34.410Z,15
2022-09-21T07:06:41.709Z,15
2022-09-21T07:07:53.707Z,15
2022-09-21T07:10:06.307Z,15
2022-09-21T07:11:09.449Z,15
2022-09-21T07:12:16.618Z,15
2022-09-21T07:14:30.248Z,15
2022-09-21T07:15:37.410Z,15.1
2022-09-21T07:16:47.357Z,15
2022-09-21T07:17:52.349Z,15
2022-09-21T07:19:10.101Z,15
2022-09-21T07:20:05.751Z,15
2022-09-21T07:21:12.375Z,15
2022-09-21T07:22:19.527Z,15
2022-09-21T07:23:26.705Z,15
2022-09-21T07:24:33.682Z,15.1
2022-09-21T07:25:40.293Z,15.1
2022-09-21T07:26:47.400Z,15.1
2022-09-21T07:27:54.494Z,15.1
2022-09-21T07:29:01.764Z,15.2
2022-09-21T07:30:08.233Z,15.2
2022-09-21T07:31:15.285Z,15.2
2022-09-21T07:33:33.888Z,15.2
2022-09-21T07:34:36.712Z,15.2
2022-09-21T07:35:44.200Z,15.2
2022-09-21T07:36:50.239Z,15.3
2022-09-21T07:37:57.421Z,15.3
2022-09-21T07:39:04.522Z,15.3
2022-09-21T07:40:11.850Z,15.3
2022-09-21T07:41:18.203Z,15.3
2022-09-21T07:42:25.255Z,15.4
2022-09-21T07:44:39.548Z,15.4
2022-09-21T07:45:46.855Z,15.4
2022-09-21T07:46:53.183Z,15.4
2022-09-21T07:48:00.288Z,15.4
2022-09-21T07:49:07.531Z,15.4
2022-09-21T07:50:14.506Z,15.4
2022-09-21T07:51:21.634Z,15.4
2022-09-21T07:52:28.211Z,15.4
2022-09-21T07:53:35.322Z,15.4
2022-09-21T07:54:42.393Z,15.4
2022-09-21T07:55:49.542Z,15.4
2022-09-21T07:56:56.653Z,15.4
2022-09-21T07:58:03.217Z,15.4
2022-09-21T08:00:17.449Z,15.4
2022-09-21T08:01:24.597Z,15.4
2022-09-21T08:02:31.712Z,15.4
2022-09-21T08:03:38.212Z,15.4
2022-09-21T08:04:45.332Z,15.4
2022-09-21T08:05:52.406Z,15.4
2022-09-21T08:06:59.562Z,15.4
2022-09-21T08:08:06.716Z,15.4
2022-09-21T08:09:13.212Z,15.4
2022-09-21T08:10:20.372Z,15.4
2022-09-21T08:11:27.814Z,15.4
2022-09-21T08:12:34.503Z,15.4
2022-09-21T08:13:41.303Z,15.4
2022-09-21T08:14:48.266Z,15.4
2022-09-21T08:15:55.353Z,15.4
2022-09-21T08:18:09.597Z,15.4
2022-09-21T08:19:16.132Z,15.4
2022-09-21T08:20:23.297Z,15.3
2022-09-21T08:21:30.341Z,15.4
2022-09-21T08:22:37.448Z,15.4
2022-09-21T08:23:44.564Z,15.3
2022-09-21T08:25:58.284Z,15.4
2022-09-21T08:28:12.441Z,15.4
2022-09-21T08:29:19.641Z,15.4
2022-09-21T08:30:26.210Z,15.4
2022-09-21T08:31:33.285Z,15.4
2022-09-21T08:32:51.056Z,15.4
2022-09-21T08:33:47.541Z,15.4
2022-09-21T08:34:54.718Z,15.4
2022-09-21T08:36:01.735Z,15.4
2022-09-21T08:37:08.227Z,15.3
2022-09-21T08:38:15.366Z,15.4
2022-09-21T08:39:22.444Z,15.3
2022-09-21T08:40:29.757Z,15.3
2022-09-21T08:41:36.631Z,15.3
2022-09-21T08:42:48.795Z,15.3
2022-09-21T08:43:50.407Z,15.3
2022-09-21T08:44:58.069Z,15.3
2022-09-21T08:46:07.727Z,15.3
2022-09-21T08:47:11.736Z,15.4
2022-09-21T08:48:21.810Z,15.4
2022-09-21T08:49:25.370Z,15.4
2022-09-21T08:50:32.502Z,15.4
2022-09-21T08:51:39.989Z,15.4
2022-09-21T08:52:47.873Z,15.4
2022-09-21T08:53:53.499Z,15.4
2022-09-21T08:55:00.435Z,15.3
2022-09-21T08:56:07.488Z,15.3
2022-09-21T08:57:14.609Z,15.3
2022-09-21T08:58:21.199Z,15.3
2022-09-21T08:59:28.419Z,15.3
2022-09-21T09:00:36.615Z,15.3
2022-09-21T09:01:42.547Z,15.3
2022-09-21T09:02:49.803Z,15.3
2022-09-21T09:03:56.945Z,15.2
2022-09-21T09:05:03.387Z,15.2
2022-09-21T09:07:17.501Z,15.2
2022-09-21T09:08:24.104Z,15.2
2022-09-21T09:09:31.285Z,15.2
2022-09-21T09:10:38.498Z,15.2
2022-09-21T09:11:45.499Z,15.2
2022-09-21T09:12:53.086Z,15.2
2022-09-21T09:13:59.719Z,15.2
2022-09-21T09:15:06.330Z,15.2
2022-09-21T09:16:13.651Z,15.2
2022-09-21T09:17:20.526Z,15.1
2022-09-21T09:18:27.500Z,15.1
2022-09-21T09:19:34.060Z,15.1
2022-09-21T09:21:48.488Z,15.1
2022-09-21T09:22:55.456Z,15.1
2022-09-21T09:24:03.538Z,15.1
2022-09-21T09:25:09.069Z,15.1
2022-09-21T09:26:17.802Z,15.1
2022-09-21T09:27:23.323Z,15.1
2022-09-21T09:28:30.464Z,15.1
2022-09-21T09:29:36.998Z,15.2
2022-09-21T09:30:44.233Z,15.2
2022-09-21T09:31:51.416Z,15.2
2022-09-21T09:33:05.572Z,15.2
2022-09-21T09:34:05.488Z,15.2
2022-09-21T09:35:12.495Z,15.2
2022-09-21T09:36:34.819Z,15.2
2022-09-21T09:37:26.228Z,15.3
2022-09-21T09:38:33.403Z,15.3
2022-09-21T09:39:41.053Z,15.3
2022-09-21T09:40:47.699Z,15.3
2022-09-21T09:41:54.096Z,15.3
2022-09-21T09:43:04.749Z,15.3
2022-09-21T09:44:08.351Z,15.3
2022-09-21T09:45:15.502Z,15.3
2022-09-21T09:46:22.702Z,15.3
2022-09-21T09:48:36.283Z,15.3
2022-09-21T09:49:43.350Z,15.3
2022-09-21T09:50:50.570Z,15.3
2022-09-21T09:51:57.553Z,15.3
2022-09-21T09:53:04.149Z,15.3
2022-09-21T09:54:11.397Z,15.3
2022-09-21T09:56:25.499Z,15.3
2022-09-21T09:58:41.742Z,15.3
2022-09-21T09:59:50.506Z,15.3
2022-09-21T10:00:53.380Z,15.3
2022-09-21T10:02:00.560Z,15.3
2022-09-21T10:03:15.840Z,15.3
2022-09-21T10:04:17.539Z,15.3
2022-09-21T10:05:22.585Z,15.3
2022-09-21T10:06:28.442Z,15.3
2022-09-21T10:07:35.525Z,15.3
2022-09-21T10:08:42.351Z,15.3
2022-09-21T10:09:49.406Z,15.3
2022-09-21T10:10:56.329Z,15.4
2022-09-21T10:12:08.138Z,15.4
2022-09-21T10:13:11.033Z,15.4
2022-09-21T10:14:17.070Z,15.4
2022-09-21T10:15:25.665Z,15.4
2022-09-21T10:16:31.422Z,15.4
2022-09-21T10:17:38.620Z,15.4
2022-09-21T10:18:45.567Z,15.4
2022-09-21T10:19:52.072Z,15.4
2022-09-21T10:20:59.409Z,15.4
2022-09-21T10:22:06.344Z,15.4
2022-09-21T10:23:13.423Z,15.4
2022-09-21T10:26:34.340Z,15.4
2022-09-21T10:27:41.366Z,15.4
2022-09-21T10:29:55.534Z,15.4
2022-09-21T10:31:02.376Z,15.4
2022-09-21T10:32:14.352Z,15.4
2022-09-21T10:33:21.205Z,15.4
2022-09-21T10:34:23.468Z,15.4
2022-09-21T10:35:30.510Z,15.4
2022-09-21T10:36:38.496Z,15.4
2022-09-21T10:37:44.278Z,15.5
2022-09-21T10:38:51.299Z,15.5
2022-09-21T10:39:59.572Z,15.5
2022-09-21T10:41:05.544Z,15.5
2022-09-21T10:42:12.086Z,15.5
2022-09-21T10:43:20.213Z,15.5
2022-09-21T10:44:26.312Z,15.5
2022-09-21T10:45:34.471Z,15.5
2022-09-21T10:46:41.095Z,15.6
2022-09-21T10:47:47.139Z,15.5
2022-09-21T10:48:54.228Z,15.5
2022-09-21T10:50:01.630Z,15.5
2022-09-21T10:51:08.538Z,15.5
2022-09-21T10:52:15.517Z,15.5
2022-09-21T10:54:29.313Z,15.5
2022-09-21T10:55:40.749Z,15.4
2022-09-21T10:56:43.706Z,15.4
2022-09-21T10:57:51.008Z,15.5
2022-09-21T10:58:57.277Z,15.5
2022-09-21T11:00:04.386Z,15.4
2022-09-21T11:01:11.489Z,15.4
2022-09-21T11:02:18.550Z,15.4
2022-09-21T11:03:25.512Z,15.4
2022-09-21T11:04:32.344Z,15.4
2022-09-21T11:05:39.276Z,15.4
2022-09-21T11:06:47.774Z,15.4
2022-09-21T11:08:07.962Z,15.4
2022-09-21T11:09:00.023Z,15.4
2022-09-21T11:11:14.268Z,15.4
2022-09-21T11:12:21.433Z,15.4
2022-09-21T11:13:45.185Z,15.4
2022-09-21T11:14:35.525Z,15.4
2022-09-21T11:15:42.231Z,15.4
2022-09-21T11:16:49.284Z,15.4
2022-09-21T11:17:56.407Z,15.4
2022-09-21T11:19:03.460Z,15.4
2022-09-21T11:20:10.103Z,15.4
2022-09-21T11:21:17.146Z,15.4
2022-09-21T11:22:24.254Z,15.4
2022-09-21T11:24:38.554Z,15.4
2022-09-21T11:25:45.090Z,15.4
2022-09-21T11:26:52.163Z,15.4
2022-09-21T11:29:06.469Z,15.4
2022-09-21T11:30:13.872Z,15.4
2022-09-21T11:31:23.459Z,15.4
2022-09-21T11:32:27.214Z,15.4
2022-09-21T11:33:34.325Z,15.4
2022-09-21T11:34:41.413Z,15.4
2022-09-21T11:35:53.278Z,15.4
2022-09-21T11:36:55.064Z,15.4
2022-09-21T11:38:02.156Z,15.4
2022-09-21T11:39:09.344Z,15.4
2022-09-21T11:40:16.494Z,15.4
2022-09-21T11:41:23.514Z,15.4
2022-09-21T11:42:30.149Z,15.4
2022-09-21T11:43:37.229Z,15.5
2022-09-21T11:44:44.345Z,15.4
2022-09-21T11:45:51.454Z,15.4
2022-09-21T11:46:59.042Z,15.4
2022-09-21T11:48:05.097Z,15.4
2022-09-21T11:49:12.340Z,15.4
2022-09-21T11:50:30.313Z,15.4
2022-09-21T11:52:33.521Z,15.4
2022-09-21T11:53:40.121Z,15.4
2022-09-21T11:54:47.411Z,15.4
2022-09-21T11:55:53.822Z,15.4
2022-09-21T11:57:01.450Z,15.4
2022-09-21T11:58:08.580Z,15.4
2022-09-21T11:59:15.059Z,15.4
2022-09-21T12:00:22.772Z,15.4
2022-09-21T12:01:30.372Z,15.4
2022-09-21T12:02:36.626Z,15.4
2022-09-21T12:03:43.579Z,15.4
2022-09-21T12:04:50.065Z,15.4
2022-09-21T12:05:57.200Z,15.4
2022-09-21T12:07:04.311Z,15.4
2022-09-21T12:08:11.455Z,15.4
2022-09-21T12:09:19.251Z,15.4
2022-09-21T12:10:25.138Z,15.4
2022-09-21T12:11:32.266Z,15.4
2022-09-21T12:12:39.368Z,15.4
2022-09-21T12:13:46.417Z,15.4
2022-09-21T12:14:53.671Z,15.4
2022-09-21T12:16:00.193Z,15.4
2022-09-21T12:17:07.274Z,15.4
2022-09-21T12:18:14.335Z,15.4
2022-09-21T12:19:21.471Z,15.4
2022-09-21T12:20:28.102Z,15.4
2022-09-21T12:21:35.168Z,15.4
2022-09-21T12:22:42.305Z,15.5
2022-09-21T12:24:55.925Z,15.5
2022-09-21T12:26:03.162Z,15.5
2022-09-21T12:27:10.182Z,15.5
2022-09-21T12:28:17.228Z,15.5
2022-09-21T12:29:24.319Z,15.5
2022-09-21T12:30:31.571Z,15.5
2022-09-21T12:33:52.293Z,15.5
2022-09-21T12:34:59.344Z,15.5
2022-09-21T12:36:06.483Z,15.5
2022-09-21T12:37:13.610Z,15.5
2022-09-21T12:38:20.219Z,15.5
2022-09-21T12:39:27.283Z,15.4
2022-09-21T12:40:34.464Z,15.4
2022-09-21T12:41:41.451Z,15.4
2022-09-21T12:42:48.105Z,15.4
2022-09-21T12:43:55.185Z,15.4
2022-09-21T12:45:02.269Z,15.4
2022-09-21T12:46:09.477Z,15.4
2022-09-21T12:47:16.508Z,15.4
2022-09-21T12:48:23.061Z,15.4
2022-09-21T12:49:30.207Z,15.4
2022-09-21T12:50:38.366Z,15.4
2022-09-21T12:52:51.549Z,15.4
2022-09-21T12:53:58.121Z,15.4
2022-09-21T12:55:05.135Z,15.4
2022-09-21T12:56:12.315Z,15.4
2022-09-21T12:57:42.737Z,15.4
2022-09-21T12:58:26.573Z,15.4
2022-09-21T12:59:33.068Z,15.4
2022-09-21T13:00:40.152Z,15.3
2022-09-21T13:01:47.450Z,15.3
2022-09-21T13:02:54.409Z,15.3
2022-09-21T13:04:01.596Z,15.3
2022-09-21T13:05:08.097Z,15.3
2022-09-21T13:06:15.149Z,15.3
2022-09-21T13:07:22.296Z,15.3
2022-09-21T13:08:29.386Z,15.3
2022-09-21T13:09:36.077Z,15.3
2022-09-21T13:10:43.097Z,15.3
2022-09-21T13:11:50.182Z,15.3
2022-09-21T13:12:57.327Z,15.3
2022-09-21T13:15:11.061Z,15.3
2022-09-21T13:16:18.145Z,15.3
2022-09-21T13:17:25.173Z,15.3
2022-09-21T13:18:35.857Z,15.3
2022-09-21T13:20:47.110Z,15.4
2022-09-21T13:21:53.119Z,15.4
2022-09-21T13:23:00.251Z,15.4
2022-09-21T13:24:07.344Z,15.4
2022-09-21T13:25:14.414Z,15.4
2022-09-21T13:26:24.649Z,15.4
2022-09-21T13:27:28.140Z,15.4
2022-09-21T13:28:35.746Z,15.4
2022-09-21T13:29:42.351Z,15.4
2022-09-21T13:30:49.418Z,15.5
2022-09-21T13:31:57.103Z,15.4
2022-09-21T13:33:03.188Z,15.5
2022-09-21T13:34:10.277Z,15.5
2022-09-21T13:36:24.463Z,15.4
2022-09-21T13:37:31.045Z,15.4
2022-09-21T13:38:38.178Z,15.4
2022-09-21T13:39:45.208Z,15.4
2022-09-21T13:40:52.352Z,15.4
2022-09-21T13:42:03.127Z,15.4
2022-09-21T13:43:06.079Z,15.4
2022-09-21T13:44:13.525Z,15.4
2022-09-21T13:45:20.243Z,15.4
2022-09-21T13:46:27.341Z,15.4
2022-09-21T13:48:41.034Z,15.4
2022-09-21T13:49:48.163Z,15.4
2022-09-21T13:50:55.275Z,15.4
2022-09-21T13:52:02.375Z,15.4
2022-09-21T13:53:09.484Z,15.5
2022-09-21T13:54:17.745Z,15.4
2022-09-21T13:55:23.213Z,15.4
2022-09-21T13:56:30.292Z,15.4
2022-09-21T13:57:37.372Z,15.4
2022-09-21T13:58:44.486Z,15.4
2022-09-21T13:59:51.093Z,15.5
2022-09-21T14:00:58.285Z,15.5
2022-09-21T14:02:05.468Z,15.5
2022-09-21T14:03:12.432Z,15.5
2022-09-21T14:04:19.532Z,15.5
2022-09-21T14:05:26.122Z,15.6
2022-09-21T14:06:33.258Z,15.6
2022-09-21T14:08:49.515Z,15.5
2022-09-21T14:09:53.917Z,15.5
2022-09-21T14:11:01.115Z,15.5
2022-09-21T14:12:08.344Z,15.5
2022-09-21T14:13:15.785Z,15.5
2022-09-21T14:14:22.423Z,15.5
2022-09-21T14:16:36.166Z,15.5
2022-09-21T14:17:44.173Z,15.4
2022-09-21T14:18:50.272Z,15.4
2022-09-21T14:21:03.933Z,15.4
2022-09-21T14:22:11.174Z,15.4
2022-09-21T14:23:18.329Z,15.4
2022-09-21T14:24:25.271Z,15.4
2022-09-21T14:25:32.595Z,15.4
2022-09-21T14:26:38.935Z,15.4
2022-09-21T14:27:46.541Z,15.4
2022-09-21T14:28:53.341Z,15.4
2022-09-21T14:30:00.453Z,15.4
2022-09-21T14:31:07.476Z,15.4
2022-09-21T14:32:14.001Z,15.4
2022-09-21T14:33:21.463Z,15.4
2022-09-21T14:34:28.474Z,15.4
2022-09-21T14:35:35.339Z,15.4
2022-09-21T14:36:42.369Z,15.4
2022-09-21T14:37:48.959Z,15.4
2022-09-21T14:38:56.330Z,15.3
2022-09-21T14:40:03.255Z,15.3
2022-09-21T14:41:13.863Z,15.3
2022-09-21T14:42:17.472Z,15.3
2022-09-21T14:43:23.968Z,15.3
2022-09-21T14:44:32.017Z,15.3
2022-09-21T14:45:38.258Z,15.3
2022-09-21T14:46:47.459Z,15.3
2022-09-21T14:47:52.418Z,15.3
2022-09-21T14:48:59.057Z,15.3
2022-09-21T14:50:10.629Z,15.3
2022-09-21T14:51:13.182Z,15.3
2022-09-21T14:52:29.081Z,15.3
2022-09-21T14:53:27.468Z,15.3
2022-09-21T14:54:35.075Z,15.3
2022-09-21T14:55:41.233Z,15.3
2022-09-21T14:56:48.847Z,15.3
2022-09-21T14:57:55.851Z,15.4
2022-09-21T14:59:02.399Z,15.4
2022-09-21T15:00:09.176Z,15.4
2022-09-21T15:01:16.346Z,15.4
2022-09-21T15:02:23.288Z,15.5
2022-09-21T15:03:30.414Z,15.5
2022-09-21T15:04:37.496Z,15.6
2022-09-21T15:05:44.057Z,15.6
2022-09-21T15:06:51.212Z,15.6
2022-09-21T15:07:58.198Z,15.7
2022-09-21T15:09:05.430Z,15.7
2022-09-21T15:10:12.179Z,15.7
2022-09-21T15:12:26.156Z,15.7
2022-09-21T15:13:33.283Z,15.7
2022-09-21T15:14:40.354Z,15.7
2022-09-21T15:15:47.072Z,15.7
2022-09-21T15:16:54.082Z,15.7
2022-09-21T15:18:02.272Z,15.7
2022-09-21T15:19:08.254Z,15.7
2022-09-21T15:20:15.566Z,15.8
2022-09-21T15:21:21.994Z,15.7
2022-09-21T15:22:29.170Z,15.7
2022-09-21T15:23:36.145Z,15.8
2022-09-21T15:24:43.267Z,15.7
2022-09-21T15:25:50.361Z,15.7
2022-09-21T15:26:57.519Z,15.7
2022-09-21T15:28:04.620Z,15.7
2022-09-21T15:29:11.170Z,15.7
2022-09-21T15:30:18.324Z,15.7
2022-09-21T15:31:25.477Z,15.6
2022-09-21T15:32:32.006Z,15.6
2022-09-21T15:33:39.561Z,15.6
2022-09-21T15:34:46.227Z,15.6
2022-09-21T15:35:54.060Z,15.6
2022-09-21T15:37:00.429Z,15.6
2022-09-21T15:38:07.050Z,15.6
2022-09-21T15:39:14.243Z,15.5
2022-09-21T15:40:21.291Z,15.5
2022-09-21T15:41:28.282Z,15.5
2022-09-21T15:43:42.014Z,15.4
2022-09-21T15:44:50.050Z,15.4
2022-09-21T15:45:56.705Z,15.4
2022-09-21T15:47:03.413Z,15.4
2022-09-21T15:49:17.018Z,15.3
2022-09-21T15:50:24.095Z,15.3
2022-09-21T15:51:32.629Z,15.3
2022-09-21T15:52:38.337Z,15.3
2022-09-21T15:53:45.448Z,15.3
2022-09-21T15:54:51.982Z,15.3
2022-09-21T15:55:59.186Z,15.2
2022-09-21T15:57:08.457Z,15.2
2022-09-21T15:58:13.305Z,15.2
2022-09-21T15:59:19.996Z,15.2
2022-09-21T16:00:27.145Z,15.1
2022-09-21T16:01:34.689Z,15.1
2022-09-21T16:02:41.263Z,15.1
2022-09-21T16:03:48.375Z,15.1
2022-09-21T16:04:54.859Z,15.1
2022-09-21T16:06:02.045Z,15
2022-09-21T16:08:16.255Z,15
2022-09-21T16:09:23.354Z,15